createdAt,value
2019-02-11T00:00:34.461Z,5.60
2019-02-11T00:01:43.197Z,5.60
2019-02-11T00:02:49.925Z,5.60
2019-02-11T00:03:59.752Z,5.50
2019-02-11T00:05:05.305Z,5.60
2019-02-11T00:06:12.110Z,5.50
2019-02-11T00:07:18.910Z,5.50
2019-02-11T00:08:26.626Z,5.60
2019-02-11T00:09:33.419Z,5.50
2019-02-11T00:10:40.132Z,5.60
2019-02-11T00:11:47.011Z,5.50
2019-02-11T00:12:53.739Z,5.60
2019-02-11T00:14:00.457Z,5.50
2019-02-11T00:15:07.267Z,5.50
2019-02-11T00:16:14.059Z,5.60
2019-02-11T00:17:20.874Z,5.60
2019-02-11T00:18:27.682Z,5.50
2019-02-11T00:19:34.490Z,5.60
2019-02-11T00:20:41.295Z,5.60
2019-02-11T00:21:48.122Z,5.60
2019-02-11T00:22:54.859Z,5.60
2019-02-11T00:24:01.650Z,5.60
2019-02-11T00:25:08.381Z,5.60
2019-02-11T00:26:15.101Z,5.60
2019-02-11T00:27:21.843Z,5.60
2019-02-11T00:28:28.590Z,5.60
2019-02-11T00:29:35.332Z,5.60
2019-02-11T00:30:42.151Z,5.60
2019-02-11T00:31:48.968Z,5.60
2019-02-11T00:32:55.746Z,5.60
2019-02-11T00:34:02.498Z,5.60
2019-02-11T00:35:09.253Z,5.60
2019-02-11T00:36:15.974Z,5.60
2019-02-11T00:37:22.770Z,5.60
2019-02-11T00:38:29.506Z,5.60
2019-02-11T00:39:36.273Z,5.60
2019-02-11T00:40:43.161Z,5.60
2019-02-11T00:41:49.909Z,5.60
2019-02-11T00:42:56.835Z,5.60
2019-02-11T00:44:03.669Z,5.60
2019-02-11T00:45:10.557Z,5.60
2019-02-11T00:46:17.331Z,5.60
2019-02-11T00:47:24.065Z,5.60
2019-02-11T00:48:30.786Z,5.60
2019-02-11T00:49:37.493Z,5.70
2019-02-11T00:50:44.220Z,5.70
2019-02-11T00:51:50.952Z,5.70
2019-02-11T00:52:57.770Z,5.70
2019-02-11T00:54:04.507Z,5.70
2019-02-11T00:55:11.359Z,5.70
2019-02-11T00:56:18.088Z,5.70
2019-02-11T00:57:24.999Z,5.70
2019-02-11T00:58:31.742Z,5.70
2019-02-11T00:59:38.536Z,5.70
2019-02-11T01:00:45.277Z,5.70
2019-02-11T01:01:51.989Z,5.70
2019-02-11T01:02:58.778Z,5.70
2019-02-11T01:04:05.575Z,5.70
2019-02-11T01:05:12.284Z,5.70
2019-02-11T01:06:18.999Z,5.70
2019-02-11T01:07:25.783Z,5.70
2019-02-11T01:08:32.595Z,5.70
2019-02-11T01:09:39.389Z,5.70
2019-02-11T01:10:46.212Z,5.70
2019-02-11T01:11:53.020Z,5.70
2019-02-11T01:12:59.760Z,5.70
2019-02-11T01:14:06.554Z,5.60
2019-02-11T01:15:14.002Z,5.70
2019-02-11T01:16:20.718Z,5.70
2019-02-11T01:17:28.508Z,5.60
2019-02-11T01:18:35.345Z,5.60
2019-02-11T01:19:42.080Z,5.60
2019-02-11T01:20:48.788Z,5.60
2019-02-11T01:21:55.535Z,5.60
2019-02-11T01:23:02.252Z,5.60
2019-02-11T01:24:09.090Z,5.60
2019-02-11T01:25:15.914Z,5.60
2019-02-11T01:26:22.733Z,5.60
2019-02-11T01:27:29.577Z,5.60
2019-02-11T01:28:40.037Z,5.60
2019-02-11T01:29:46.771Z,5.60
2019-02-11T01:30:53.525Z,5.60
2019-02-11T01:32:00.234Z,5.60
2019-02-11T01:33:10.881Z,5.60
2019-02-11T01:34:17.851Z,5.50
2019-02-11T01:35:24.637Z,5.50
2019-02-11T01:36:31.478Z,5.50
2019-02-11T01:37:38.345Z,5.50
2019-02-11T01:38:45.103Z,5.50
2019-02-11T01:39:51.910Z,5.50
2019-02-11T01:40:58.642Z,5.50
2019-02-11T01:42:05.393Z,5.50
2019-02-11T01:43:12.092Z,5.50
2019-02-11T01:44:18.845Z,5.50
2019-02-11T01:45:25.713Z,5.50
2019-02-11T01:46:32.449Z,5.50
2019-02-11T01:47:39.249Z,5.40
2019-02-11T01:48:46.049Z,5.40
2019-02-11T01:49:54.083Z,5.40
2019-02-11T01:51:00.884Z,5.50
2019-02-11T01:52:07.705Z,5.40
2019-02-11T01:53:14.444Z,5.40
2019-02-11T01:54:23.154Z,5.40
2019-02-11T01:55:29.926Z,5.40
2019-02-11T01:56:38.238Z,5.40
2019-02-11T01:57:45.302Z,5.40
2019-02-11T01:58:52.185Z,5.40
2019-02-11T01:59:58.997Z,5.40
2019-02-11T02:01:05.778Z,5.40
2019-02-11T02:02:12.540Z,5.40
2019-02-11T02:03:20.599Z,5.40
2019-02-11T02:04:27.329Z,5.40
2019-02-11T02:05:34.452Z,5.40
2019-02-11T02:06:41.250Z,5.30
2019-02-11T02:07:48.065Z,5.30
2019-02-11T02:08:54.791Z,5.30
2019-02-11T02:10:01.601Z,5.30
2019-02-11T02:11:08.498Z,5.30
2019-02-11T02:12:15.370Z,5.30
2019-02-11T02:13:22.175Z,5.30
2019-02-11T02:14:28.903Z,5.30
2019-02-11T02:15:35.702Z,5.30
2019-02-11T02:16:43.508Z,5.30
2019-02-11T02:17:50.310Z,5.30
2019-02-11T02:18:57.120Z,5.30
2019-02-11T02:20:03.998Z,5.30
2019-02-11T02:21:10.809Z,5.30
2019-02-11T02:22:17.541Z,5.30
2019-02-11T02:23:24.291Z,5.20
2019-02-11T02:24:31.040Z,5.20
2019-02-11T02:25:37.846Z,5.20
2019-02-11T02:26:45.662Z,5.20
2019-02-11T02:27:52.468Z,5.20
2019-02-11T02:28:59.271Z,5.20
2019-02-11T02:30:07.834Z,5.20
2019-02-11T02:31:14.542Z,5.20
2019-02-11T02:32:21.260Z,5.20
2019-02-11T02:33:27.985Z,5.20
2019-02-11T02:34:34.719Z,5.20
2019-02-11T02:35:41.446Z,5.20
2019-02-11T02:36:48.192Z,5.20
2019-02-11T02:37:54.984Z,5.20
2019-02-11T02:39:01.701Z,5.20
2019-02-11T02:40:10.299Z,5.20
2019-02-11T02:41:17.012Z,5.10
2019-02-11T02:42:23.789Z,5.10
2019-02-11T02:43:31.075Z,5.10
2019-02-11T02:44:37.814Z,5.10
2019-02-11T02:45:44.562Z,5.10
2019-02-11T02:46:51.230Z,5.10
2019-02-11T02:47:57.948Z,5.10
2019-02-11T02:49:04.673Z,5.10
2019-02-11T02:50:11.561Z,5.10
2019-02-11T02:51:18.344Z,5.10
2019-02-11T02:52:25.139Z,5.10
2019-02-11T02:53:31.862Z,5.10
2019-02-11T02:54:38.645Z,5.10
2019-02-11T02:55:45.360Z,5.10
2019-02-11T02:56:52.080Z,5.10
2019-02-11T02:57:58.795Z,5.10
2019-02-11T02:59:05.533Z,5.10
2019-02-11T03:00:12.298Z,5.10
2019-02-11T03:01:22.212Z,5.10
2019-02-11T03:02:28.946Z,5.10
2019-02-11T03:03:36.843Z,5.00
2019-02-11T03:04:43.668Z,5.00
2019-02-11T03:05:52.852Z,5.00
2019-02-11T03:06:58.914Z,5.00
2019-02-11T03:08:05.630Z,5.00
2019-02-11T03:09:12.452Z,5.00
2019-02-11T03:10:19.205Z,5.00
2019-02-11T03:11:26.003Z,5.00
2019-02-11T03:12:33.742Z,5.10
2019-02-11T03:13:40.482Z,5.00
2019-02-11T03:14:47.223Z,5.00
2019-02-11T03:15:53.961Z,5.00
2019-02-11T03:17:00.922Z,5.00
2019-02-11T03:18:07.623Z,5.00
2019-02-11T03:19:14.443Z,5.00
2019-02-11T03:20:21.255Z,5.00
2019-02-11T03:21:31.880Z,5.00
2019-02-11T03:22:38.623Z,5.00
2019-02-11T03:23:45.342Z,5.00
2019-02-11T03:24:52.065Z,4.90
2019-02-11T03:25:58.946Z,4.90
2019-02-11T03:27:05.668Z,4.90
2019-02-11T03:28:12.502Z,4.90
2019-02-11T03:29:19.232Z,4.90
2019-02-11T03:30:26.053Z,4.90
2019-02-11T03:31:32.845Z,4.90
2019-02-11T03:32:39.563Z,4.90
2019-02-11T03:33:46.267Z,4.80
2019-02-11T03:34:52.992Z,4.80
2019-02-11T03:35:59.730Z,4.80
2019-02-11T03:37:09.517Z,4.80
2019-02-11T03:38:16.347Z,4.80
2019-02-11T03:39:23.134Z,4.80
2019-02-11T03:40:29.944Z,4.80
2019-02-11T03:41:36.710Z,4.70
2019-02-11T03:42:43.502Z,4.70
2019-02-11T03:43:50.239Z,4.70
2019-02-11T03:44:56.950Z,4.70
2019-02-11T03:46:03.700Z,4.70
2019-02-11T03:47:10.503Z,4.60
2019-02-11T03:48:17.253Z,4.60
2019-02-11T03:49:24.090Z,4.60
2019-02-11T03:50:30.911Z,4.60
2019-02-11T03:51:37.648Z,4.60
2019-02-11T03:52:44.444Z,4.60
2019-02-11T03:53:51.265Z,4.60
2019-02-11T03:54:58.065Z,4.50
2019-02-11T03:56:04.819Z,4.50
2019-02-11T03:57:11.610Z,4.50
2019-02-11T03:58:18.363Z,4.50
2019-02-11T03:59:25.082Z,4.50
2019-02-11T04:00:31.799Z,4.40
2019-02-11T04:01:38.523Z,4.40
2019-02-11T04:02:45.286Z,4.40
2019-02-11T04:03:52.114Z,4.40
2019-02-11T04:04:58.833Z,4.40
2019-02-11T04:06:05.551Z,4.30
2019-02-11T04:07:12.407Z,4.30
2019-02-11T04:08:19.125Z,4.30
2019-02-11T04:09:25.912Z,4.30
2019-02-11T04:10:32.828Z,4.30
2019-02-11T04:11:39.611Z,4.20
2019-02-11T04:12:46.340Z,4.20
2019-02-11T04:13:53.083Z,4.20
2019-02-11T04:14:59.810Z,4.20
2019-02-11T04:16:09.051Z,4.20
2019-02-11T04:17:15.841Z,4.10
2019-02-11T04:18:22.731Z,4.20
2019-02-11T04:19:29.562Z,4.10
2019-02-11T04:20:36.276Z,4.10
2019-02-11T04:21:42.998Z,4.10
2019-02-11T04:22:49.813Z,4.10
2019-02-11T04:23:56.537Z,4.10
2019-02-11T04:25:03.322Z,4.10
2019-02-11T04:26:10.066Z,4.10
2019-02-11T04:27:16.788Z,4.00
2019-02-11T04:28:23.601Z,4.10
2019-02-11T04:29:30.480Z,4.00
2019-02-11T04:30:37.245Z,4.00
2019-02-11T04:31:44.047Z,4.00
2019-02-11T04:32:50.758Z,4.00
2019-02-11T04:33:58.313Z,4.00
2019-02-11T04:35:05.969Z,4.00
2019-02-11T04:36:12.744Z,4.00
2019-02-11T04:37:19.561Z,4.00
2019-02-11T04:38:26.349Z,4.00
2019-02-11T04:39:33.105Z,4.00
2019-02-11T04:40:39.908Z,4.00
2019-02-11T04:41:46.656Z,4.00
2019-02-11T04:42:53.395Z,4.00
2019-02-11T04:44:00.195Z,3.90
2019-02-11T04:45:08.295Z,4.00
2019-02-11T04:46:15.104Z,3.90
2019-02-11T04:47:21.919Z,3.90
2019-02-11T04:48:28.789Z,3.90
2019-02-11T04:49:35.517Z,3.90
2019-02-11T04:50:42.653Z,3.90
2019-02-11T04:51:49.362Z,3.90
2019-02-11T04:52:56.199Z,3.90
2019-02-11T04:54:04.463Z,3.90
2019-02-11T04:55:11.220Z,3.90
2019-02-11T04:56:18.007Z,3.80
2019-02-11T04:57:24.802Z,3.80
2019-02-11T04:58:31.830Z,3.80
2019-02-11T04:59:38.619Z,3.80
2019-02-11T05:00:45.338Z,3.80
2019-02-11T05:01:52.048Z,3.80
2019-02-11T05:02:58.777Z,3.80
2019-02-11T05:04:05.537Z,3.80
2019-02-11T05:05:12.362Z,3.80
2019-02-11T05:06:19.101Z,3.70
2019-02-11T05:07:25.872Z,3.70
2019-02-11T05:08:37.158Z,3.70
2019-02-11T05:09:43.983Z,3.70
2019-02-11T05:10:50.986Z,3.70
2019-02-11T05:11:57.955Z,3.70
2019-02-11T05:13:04.660Z,3.70
2019-02-11T05:14:11.411Z,3.70
2019-02-11T05:15:18.128Z,3.70
2019-02-11T05:16:24.833Z,3.70
2019-02-11T05:17:31.666Z,3.70
2019-02-11T05:18:38.523Z,3.70
2019-02-11T05:19:45.282Z,3.70
2019-02-11T05:20:52.014Z,3.70
2019-02-11T05:21:59.797Z,3.70
2019-02-11T05:23:06.535Z,3.60
2019-02-11T05:24:13.434Z,3.60
2019-02-11T05:25:20.171Z,3.60
2019-02-11T05:26:26.909Z,3.60
2019-02-11T05:27:33.612Z,3.60
2019-02-11T05:28:40.347Z,3.60
2019-02-11T05:29:47.083Z,3.60
2019-02-11T05:30:53.939Z,3.60
2019-02-11T05:32:00.670Z,3.60
2019-02-11T05:33:07.422Z,3.60
2019-02-11T05:34:14.181Z,3.60
2019-02-11T05:35:20.982Z,3.60
2019-02-11T05:36:27.815Z,3.60
2019-02-11T05:37:34.995Z,3.60
2019-02-11T05:38:41.778Z,3.60
2019-02-11T05:39:48.518Z,3.60
2019-02-11T05:40:55.214Z,3.60
2019-02-11T05:42:02.108Z,3.60
2019-02-11T05:43:08.904Z,3.60
2019-02-11T05:44:16.909Z,3.60
2019-02-11T05:45:23.616Z,3.60
2019-02-11T05:46:30.333Z,3.60
2019-02-11T05:47:37.069Z,3.60
2019-02-11T05:48:43.794Z,3.60
2019-02-11T05:49:50.589Z,3.60
2019-02-11T05:50:57.380Z,3.60
2019-02-11T05:52:04.278Z,3.60
2019-02-11T05:53:11.067Z,3.60
2019-02-11T05:54:17.786Z,3.70
2019-02-11T05:55:26.267Z,3.70
2019-02-11T05:56:33.003Z,3.70
2019-02-11T05:57:39.715Z,3.70
2019-02-11T05:58:46.519Z,3.60
2019-02-11T05:59:53.233Z,3.70
2019-02-11T06:00:59.974Z,3.60
2019-02-11T06:02:06.749Z,3.70
2019-02-11T06:03:13.459Z,3.60
2019-02-11T06:04:20.166Z,3.70
2019-02-11T06:05:26.885Z,3.70
2019-02-11T06:06:33.620Z,3.70
2019-02-11T06:07:40.418Z,3.60
2019-02-11T06:08:47.234Z,3.70
2019-02-11T06:09:54.043Z,3.60
2019-02-11T06:11:00.765Z,3.70
2019-02-11T06:12:10.727Z,3.70
2019-02-11T06:13:17.546Z,3.70
2019-02-11T06:14:25.234Z,3.60
2019-02-11T06:15:32.025Z,3.70
2019-02-11T06:16:38.739Z,3.60
2019-02-11T06:17:45.456Z,3.70
2019-02-11T06:18:52.195Z,3.70
2019-02-11T06:19:58.981Z,3.70
2019-02-11T06:21:05.707Z,3.70
2019-02-11T06:22:12.518Z,3.70
2019-02-11T06:23:19.325Z,3.70
2019-02-11T06:24:26.103Z,3.70
2019-02-11T06:25:33.890Z,3.70
2019-02-11T06:26:41.770Z,3.70
2019-02-11T06:27:48.688Z,3.70
2019-02-11T06:28:55.404Z,3.70
2019-02-11T06:30:02.133Z,3.70
2019-02-11T06:31:08.920Z,3.70
2019-02-11T06:32:15.727Z,3.70
2019-02-11T06:33:22.442Z,3.70
2019-02-11T06:34:29.266Z,3.70
2019-02-11T06:35:36.060Z,3.70
2019-02-11T06:36:43.970Z,3.70
2019-02-11T06:37:51.026Z,3.70
2019-02-11T06:38:57.912Z,3.70
2019-02-11T06:40:05.095Z,3.70
2019-02-11T06:41:11.833Z,3.70
2019-02-11T06:42:18.526Z,3.70
2019-02-11T06:43:25.273Z,3.70
2019-02-11T06:44:32.119Z,3.70
2019-02-11T06:45:38.833Z,3.70
2019-02-11T06:46:45.562Z,3.70
2019-02-11T06:47:52.322Z,3.70
2019-02-11T06:48:59.149Z,3.70
2019-02-11T06:50:07.121Z,3.70
2019-02-11T06:51:14.006Z,3.70
2019-02-11T06:52:20.724Z,3.80
2019-02-11T06:53:27.459Z,3.80
2019-02-11T06:54:34.531Z,3.80
2019-02-11T06:55:41.246Z,3.80
2019-02-11T06:56:48.021Z,3.80
2019-02-11T06:57:54.749Z,3.80
2019-02-11T06:59:01.453Z,3.80
2019-02-11T07:00:10.884Z,3.80
2019-02-11T07:01:17.597Z,3.80
2019-02-11T07:02:24.400Z,3.80
2019-02-11T07:03:31.179Z,3.80
2019-02-11T07:04:37.900Z,3.80
2019-02-11T07:05:44.636Z,3.80
2019-02-11T07:06:51.365Z,3.80
2019-02-11T07:07:58.084Z,3.80
2019-02-11T07:09:05.972Z,3.80
2019-02-11T07:10:12.850Z,3.80
2019-02-11T07:11:19.580Z,3.80
2019-02-11T07:12:26.326Z,3.80
2019-02-11T07:13:33.042Z,3.80
2019-02-11T07:14:39.771Z,3.80
2019-02-11T07:15:46.518Z,3.80
2019-02-11T07:16:53.372Z,3.90
2019-02-11T07:18:23.734Z,3.80
2019-02-11T07:19:30.442Z,3.90
2019-02-11T07:20:37.235Z,3.90
2019-02-11T07:21:44.038Z,3.90
2019-02-11T07:22:50.755Z,3.90
2019-02-11T07:23:57.479Z,3.90
2019-02-11T07:25:04.275Z,3.90
2019-02-11T07:26:10.986Z,3.90
2019-02-11T07:27:17.724Z,3.90
2019-02-11T07:28:24.445Z,3.90
2019-02-11T07:29:31.256Z,3.90
2019-02-11T07:30:37.942Z,3.90
2019-02-11T07:31:44.670Z,3.90
2019-02-11T07:32:51.396Z,3.90
2019-02-11T07:33:58.191Z,3.90
2019-02-11T07:35:05.935Z,3.90
2019-02-11T07:36:15.714Z,3.90
2019-02-11T07:37:22.433Z,3.90
2019-02-11T07:38:29.154Z,4.00
2019-02-11T07:39:35.903Z,4.00
2019-02-11T07:40:42.617Z,3.90
2019-02-11T07:42:26.750Z,3.90
2019-02-11T07:43:41.652Z,3.90
2019-02-11T07:44:56.732Z,3.90
2019-02-11T07:46:10.656Z,4.00
2019-02-11T07:47:17.366Z,3.90
2019-02-11T07:48:24.105Z,3.90
2019-02-11T07:49:30.833Z,3.90
2019-02-11T07:50:37.586Z,4.00
2019-02-11T07:51:44.294Z,4.00
2019-02-11T07:52:51.010Z,4.00
2019-02-11T07:53:57.732Z,4.00
2019-02-11T07:55:05.060Z,3.90
2019-02-11T07:56:11.808Z,4.00
2019-02-11T07:57:18.524Z,3.90
2019-02-11T07:58:25.304Z,3.90
2019-02-11T07:59:31.981Z,3.90
2019-02-11T08:00:38.710Z,4.00
2019-02-11T08:01:45.514Z,3.90
2019-02-11T08:02:52.316Z,4.00
2019-02-11T08:03:59.027Z,4.00
2019-02-11T08:05:06.436Z,4.00
2019-02-11T08:06:13.158Z,4.00
2019-02-11T08:07:19.885Z,4.00
2019-02-11T08:08:26.696Z,4.00
2019-02-11T08:09:33.485Z,4.00
2019-02-11T08:10:40.222Z,4.00
2019-02-11T08:11:47.006Z,4.00
2019-02-11T08:12:53.737Z,4.00
2019-02-11T08:14:00.476Z,4.00
2019-02-11T08:15:07.854Z,4.00
2019-02-11T08:16:14.586Z,4.00
2019-02-11T08:17:21.290Z,4.00
2019-02-11T08:18:28.026Z,4.00
2019-02-11T08:19:34.809Z,4.00
2019-02-11T08:20:41.520Z,4.00
2019-02-11T08:21:48.296Z,4.00
2019-02-11T08:22:55.089Z,4.00
2019-02-11T08:24:01.807Z,4.00
2019-02-11T08:25:09.073Z,4.00
2019-02-11T08:26:15.860Z,4.00
2019-02-11T08:27:22.565Z,4.00
2019-02-11T08:28:29.452Z,4.00
2019-02-11T08:29:36.190Z,4.00
2019-02-11T08:30:42.919Z,4.00
2019-02-11T08:31:49.795Z,4.00
2019-02-11T08:32:56.514Z,4.00
2019-02-11T08:34:03.231Z,4.00
2019-02-11T08:35:11.028Z,4.00
2019-02-11T08:36:17.824Z,4.00
2019-02-11T08:37:24.577Z,4.00
2019-02-11T08:38:31.295Z,4.00
2019-02-11T08:39:38.006Z,4.00
2019-02-11T08:40:44.720Z,4.00
2019-02-11T08:41:52.520Z,4.00
2019-02-11T08:42:59.251Z,4.00
2019-02-11T08:44:17.967Z,4.00
2019-02-11T08:45:24.671Z,4.00
2019-02-11T08:46:31.626Z,4.00
2019-02-11T08:47:38.340Z,4.00
2019-02-11T08:48:45.168Z,4.00
2019-02-11T08:49:51.963Z,4.00
2019-02-11T08:50:58.775Z,4.00
2019-02-11T08:52:05.509Z,4.10
2019-02-11T08:53:12.399Z,4.00
2019-02-11T08:54:19.157Z,4.00
2019-02-11T08:55:25.881Z,4.10
2019-02-11T08:56:32.595Z,4.10
2019-02-11T08:57:39.320Z,4.10
2019-02-11T08:58:46.035Z,4.10
2019-02-11T08:59:56.748Z,4.10
2019-02-11T09:01:03.463Z,4.10
2019-02-11T09:02:14.042Z,4.10
2019-02-11T09:03:20.748Z,4.10
2019-02-11T09:04:29.743Z,4.10
2019-02-11T09:05:36.544Z,4.10
2019-02-11T09:06:43.393Z,4.10
2019-02-11T09:07:50.110Z,4.10
2019-02-11T09:08:56.832Z,4.20
2019-02-11T09:10:03.645Z,4.20
2019-02-11T09:11:10.405Z,4.20
2019-02-11T09:12:17.130Z,4.20
2019-02-11T09:13:23.833Z,4.20
2019-02-11T09:14:31.051Z,4.20
2019-02-11T09:15:37.961Z,4.20
2019-02-11T09:16:44.743Z,4.20
2019-02-11T09:17:51.465Z,4.20
2019-02-11T09:18:58.176Z,4.30
2019-02-11T09:20:05.508Z,4.30
2019-02-11T09:21:12.245Z,4.30
2019-02-11T09:22:22.403Z,4.30
2019-02-11T09:23:29.125Z,4.30
2019-02-11T09:24:39.258Z,4.30
2019-02-11T09:25:46.005Z,4.30
2019-02-11T09:26:52.776Z,4.30
2019-02-11T09:27:59.475Z,4.30
2019-02-11T09:29:06.296Z,4.30
2019-02-11T09:30:15.414Z,4.30
2019-02-11T09:31:22.140Z,4.30
2019-02-11T09:32:28.851Z,4.30
2019-02-11T09:33:35.579Z,4.30
2019-02-11T09:34:42.312Z,4.30
2019-02-11T09:35:49.054Z,4.30
2019-02-11T09:36:55.761Z,4.30
2019-02-11T09:38:02.555Z,4.40
2019-02-11T09:39:10.239Z,4.40
2019-02-11T09:40:17.082Z,4.40
2019-02-11T09:41:23.794Z,4.40
2019-02-11T09:42:30.531Z,4.40
2019-02-11T09:43:37.241Z,4.40
2019-02-11T09:44:44.056Z,4.40
2019-02-11T09:45:50.791Z,4.40
2019-02-11T09:46:57.509Z,4.40
2019-02-11T09:48:04.233Z,4.40
2019-02-11T09:49:11.001Z,4.40
2019-02-11T09:50:32.057Z,4.40
2019-02-11T09:51:44.702Z,4.40
2019-02-11T09:52:51.418Z,4.40
2019-02-11T09:53:58.158Z,4.50
2019-02-11T09:55:09.770Z,4.50
2019-02-11T09:56:16.487Z,4.40
2019-02-11T09:57:23.236Z,4.40
2019-02-11T09:58:29.978Z,4.40
2019-02-11T09:59:36.705Z,4.50
2019-02-11T10:00:43.413Z,4.50
2019-02-11T10:01:50.221Z,4.50
2019-02-11T10:02:56.962Z,4.50
2019-02-11T10:04:03.694Z,4.50
2019-02-11T10:05:10.563Z,4.50
2019-02-11T10:06:17.292Z,4.40
2019-02-11T10:07:24.010Z,4.40
2019-02-11T10:08:30.736Z,4.40
2019-02-11T10:09:38.335Z,4.40
2019-02-11T10:10:45.067Z,4.40
2019-02-11T10:11:51.774Z,4.40
2019-02-11T10:12:58.548Z,4.40
2019-02-11T10:14:05.288Z,4.40
2019-02-11T10:15:12.964Z,4.40
2019-02-11T10:16:19.769Z,4.40
2019-02-11T10:17:29.766Z,4.40
2019-02-11T10:18:34.923Z,4.40
2019-02-11T10:19:41.928Z,4.50
2019-02-11T10:20:49.751Z,4.40
2019-02-11T10:21:56.472Z,4.40
2019-02-11T10:23:04.778Z,4.50
2019-02-11T10:24:11.613Z,4.40
2019-02-11T10:25:22.190Z,4.50
2019-02-11T10:26:28.915Z,4.50
2019-02-11T10:27:37.055Z,4.40
2019-02-11T10:28:43.786Z,4.50
2019-02-11T10:29:50.608Z,4.50
2019-02-11T10:30:57.324Z,4.50
2019-02-11T10:32:04.398Z,4.50
2019-02-11T10:33:11.116Z,4.50
2019-02-11T10:34:17.855Z,4.50
2019-02-11T10:35:24.576Z,4.50
2019-02-11T10:36:31.367Z,4.50
2019-02-11T10:37:38.097Z,4.50
2019-02-11T10:38:44.820Z,4.50
2019-02-11T10:39:51.551Z,4.50
2019-02-11T10:40:58.337Z,4.50
2019-02-11T10:42:05.039Z,4.50
2019-02-11T10:43:11.749Z,4.50
2019-02-11T10:44:18.546Z,4.50
2019-02-11T10:45:25.284Z,4.50
2019-02-11T10:46:32.027Z,4.50
2019-02-11T10:47:39.256Z,4.50
2019-02-11T10:48:45.981Z,4.50
2019-02-11T10:49:52.717Z,4.50
2019-02-11T10:50:59.558Z,4.50
2019-02-11T10:52:06.294Z,4.60
2019-02-11T10:53:13.082Z,4.50
2019-02-11T10:54:20.215Z,4.50
2019-02-11T10:55:26.927Z,4.60
2019-02-11T10:56:33.807Z,4.60
2019-02-11T10:57:40.532Z,4.60
2019-02-11T10:58:47.273Z,4.50
2019-02-11T10:59:54.060Z,4.60
2019-02-11T11:01:00.859Z,4.60
2019-02-11T11:02:07.760Z,4.60
2019-02-11T11:03:14.485Z,4.60
2019-02-11T11:04:21.285Z,4.60
2019-02-11T11:05:28.017Z,4.60
2019-02-11T11:06:34.750Z,4.60
2019-02-11T11:07:41.467Z,4.60
2019-02-11T11:08:48.185Z,4.60
2019-02-11T11:09:54.926Z,4.60
2019-02-11T11:11:01.713Z,4.60
2019-02-11T11:12:08.583Z,4.60
2019-02-11T11:13:15.356Z,4.60
2019-02-11T11:14:22.093Z,4.60
2019-02-11T11:15:29.124Z,4.60
2019-02-11T11:16:36.001Z,4.60
2019-02-11T11:17:42.724Z,4.70
2019-02-11T11:18:49.522Z,4.70
2019-02-11T11:19:56.251Z,4.60
2019-02-11T11:21:02.997Z,4.70
2019-02-11T11:22:09.858Z,4.70
2019-02-11T11:23:16.646Z,4.70
2019-02-11T11:24:23.358Z,4.70
2019-02-11T11:25:30.135Z,4.70
2019-02-11T11:26:36.869Z,4.70
2019-02-11T11:27:43.580Z,4.70
2019-02-11T11:28:50.304Z,4.70
2019-02-11T11:29:57.025Z,4.70
2019-02-11T11:31:03.830Z,4.70
2019-02-11T11:32:10.550Z,4.70
2019-02-11T11:33:18.285Z,4.70
2019-02-11T11:34:24.997Z,4.70
2019-02-11T11:35:31.723Z,4.70
2019-02-11T11:36:38.419Z,4.70
2019-02-11T11:37:45.152Z,4.70
2019-02-11T11:38:51.881Z,4.70
2019-02-11T11:39:58.611Z,4.70
2019-02-11T11:41:05.547Z,4.70
2019-02-11T11:42:12.488Z,4.70
2019-02-11T11:43:19.218Z,4.80
2019-02-11T11:44:25.939Z,4.80
2019-02-11T11:45:32.735Z,4.80
2019-02-11T11:46:46.974Z,4.80
2019-02-11T11:47:50.016Z,4.80
2019-02-11T11:48:56.753Z,4.80
2019-02-11T11:50:03.465Z,4.90
2019-02-11T11:51:10.284Z,4.90
2019-02-11T11:52:18.050Z,4.90
2019-02-11T11:53:24.803Z,4.90
2019-02-11T11:54:31.546Z,4.90
2019-02-11T11:55:38.331Z,5.00
2019-02-11T11:56:45.119Z,4.90
2019-02-11T11:57:52.015Z,5.00
2019-02-11T11:58:58.736Z,5.00
2019-02-11T12:00:15.899Z,5.00
2019-02-11T12:01:22.745Z,5.00
2019-02-11T12:02:29.849Z,5.00
2019-02-11T12:03:36.567Z,5.00
2019-02-11T12:04:43.396Z,5.00
2019-02-11T12:05:50.281Z,5.00
2019-02-11T12:06:59.038Z,5.00
2019-02-11T12:08:06.852Z,5.10
2019-02-11T12:09:17.187Z,5.00
2019-02-11T12:10:24.222Z,5.10
2019-02-11T12:11:31.469Z,5.10
2019-02-11T12:12:38.718Z,5.10
2019-02-11T12:13:46.735Z,5.10
2019-02-11T12:14:54.469Z,5.10
2019-02-11T12:16:03.959Z,5.10
2019-02-11T12:17:11.592Z,5.10
2019-02-11T12:18:19.739Z,5.10
2019-02-11T12:19:27.128Z,5.10
2019-02-11T12:20:37.292Z,5.10
2019-02-11T12:21:45.165Z,5.10
2019-02-11T12:22:53.709Z,5.10
2019-02-11T12:24:01.499Z,5.10
2019-02-11T12:25:11.673Z,5.10
2019-02-11T12:26:21.431Z,5.10
2019-02-11T12:27:29.904Z,5.10
2019-02-11T12:28:41.651Z,5.10
2019-02-11T12:29:49.598Z,5.10
2019-02-11T12:30:57.036Z,5.10
2019-02-11T12:32:04.753Z,5.10
2019-02-11T12:33:13.853Z,5.10
2019-02-11T12:34:22.340Z,5.10
2019-02-11T12:35:29.913Z,5.10
2019-02-11T12:36:37.559Z,5.10
2019-02-11T12:37:46.055Z,5.10
2019-02-11T12:38:53.689Z,5.10
2019-02-11T12:40:01.159Z,5.10
2019-02-11T12:41:08.981Z,5.10
2019-02-11T12:42:16.884Z,5.10
2019-02-11T12:43:24.835Z,5.10
2019-02-11T12:44:33.794Z,5.10
2019-02-11T12:45:41.309Z,5.10
2019-02-11T12:46:50.368Z,5.10
2019-02-11T12:47:57.556Z,5.20
2019-02-11T12:49:04.825Z,5.20
2019-02-11T12:50:13.887Z,5.20
2019-02-11T12:51:22.750Z,5.30
2019-02-11T12:52:30.389Z,5.30
2019-02-11T12:53:39.357Z,5.30
2019-02-11T12:54:48.059Z,5.30
2019-02-11T12:56:02.234Z,5.40
2019-02-11T12:57:07.132Z,5.40
2019-02-11T12:58:15.276Z,5.40
2019-02-11T12:59:23.266Z,5.40
2019-02-11T13:00:31.147Z,5.50
2019-02-11T13:01:38.957Z,5.50
2019-02-11T13:02:48.378Z,5.50
2019-02-11T13:04:03.193Z,5.60
2019-02-11T13:05:12.171Z,5.60
2019-02-11T13:06:19.570Z,5.60
2019-02-11T13:07:26.864Z,5.70
2019-02-11T13:08:35.932Z,5.70
2019-02-11T13:09:43.620Z,5.70
2019-02-11T13:10:50.637Z,5.70
2019-02-11T13:11:57.687Z,5.70
2019-02-11T13:13:06.883Z,5.80
2019-02-11T13:14:13.336Z,5.80
2019-02-11T13:15:53.176Z,5.80
2019-02-11T13:16:32.328Z,5.80
2019-02-11T13:17:39.521Z,5.80
2019-02-11T13:18:46.640Z,5.80
2019-02-11T13:20:07.941Z,5.80
2019-02-11T13:21:06.809Z,5.80
2019-02-11T13:22:14.138Z,5.80
2019-02-11T13:23:20.958Z,5.80
2019-02-11T13:24:27.750Z,5.70
2019-02-11T13:25:35.493Z,5.80
2019-02-11T13:26:42.203Z,5.70
2019-02-11T13:27:51.015Z,5.70
2019-02-11T13:28:57.722Z,5.70
2019-02-11T13:30:07.049Z,5.70
2019-02-11T13:31:29.488Z,5.70
2019-02-11T13:32:36.225Z,5.60
2019-02-11T13:34:25.199Z,5.60
2019-02-11T13:35:33.007Z,5.60
2019-02-11T13:38:20.034Z,5.60
2019-02-11T13:39:26.887Z,5.60
2019-02-11T13:40:33.642Z,5.60
2019-02-11T13:41:49.839Z,5.60
2019-02-11T13:42:56.538Z,5.60
2019-02-11T13:44:03.311Z,5.60
2019-02-11T13:45:13.917Z,5.60
2019-02-11T13:46:21.397Z,5.60
2019-02-11T13:47:54.806Z,5.60
2019-02-11T13:48:53.941Z,5.60
2019-02-11T13:50:07.470Z,5.60
2019-02-11T13:51:14.254Z,5.60
2019-02-11T13:52:27.403Z,5.60
2019-02-11T13:53:34.115Z,5.60
2019-02-11T13:54:40.911Z,5.60
2019-02-11T13:55:47.643Z,5.60
2019-02-11T13:56:56.457Z,5.60
2019-02-11T13:58:03.245Z,5.60
2019-02-11T13:59:13.530Z,5.60
2019-02-11T14:00:29.450Z,5.60
2019-02-11T14:01:36.163Z,5.60
2019-02-11T14:02:50.064Z,5.60
2019-02-11T14:03:56.844Z,5.60
2019-02-11T14:05:04.395Z,5.60
2019-02-11T14:06:11.119Z,5.60
2019-02-11T14:07:17.846Z,5.60
2019-02-11T14:08:24.548Z,5.70
2019-02-11T14:09:31.300Z,5.70
2019-02-11T14:10:38.090Z,5.70
2019-02-11T14:11:44.811Z,5.70
2019-02-11T14:12:51.517Z,5.70
2019-02-11T14:14:03.090Z,5.70
2019-02-11T14:15:06.700Z,5.70
2019-02-11T14:16:13.519Z,5.70
2019-02-11T14:17:20.296Z,5.70
2019-02-11T14:18:27.076Z,5.70
2019-02-11T14:19:33.807Z,5.70
2019-02-11T14:20:40.917Z,5.70
2019-02-11T14:21:48.722Z,5.70
2019-02-11T14:22:55.480Z,5.70
2019-02-11T14:24:02.492Z,5.70
2019-02-11T14:25:10.532Z,5.70
2019-02-11T14:26:17.308Z,5.70
2019-02-11T14:27:24.028Z,5.70
2019-02-11T14:28:30.749Z,5.70
2019-02-11T14:29:37.730Z,5.70
2019-02-11T14:30:45.691Z,5.70
2019-02-11T14:31:52.436Z,5.70
2019-02-11T14:32:59.347Z,5.70
2019-02-11T14:34:09.951Z,5.70
2019-02-11T14:35:15.304Z,5.70
2019-02-11T14:36:22.391Z,5.70
2019-02-11T14:37:29.303Z,5.70
2019-02-11T14:38:36.354Z,5.70
2019-02-11T14:39:43.435Z,5.70
2019-02-11T14:40:53.640Z,5.70
2019-02-11T14:42:02.525Z,5.70
2019-02-11T14:43:09.341Z,5.70
2019-02-11T14:44:16.369Z,5.70
2019-02-11T14:45:23.305Z,5.70
2019-02-11T14:46:30.346Z,5.70
2019-02-11T14:47:38.982Z,5.70
2019-02-11T14:48:45.978Z,5.70
2019-02-11T14:49:53.970Z,5.70
2019-02-11T14:51:02.140Z,5.70
2019-02-11T14:52:09.096Z,5.70
2019-02-11T14:53:15.975Z,5.70
2019-02-11T14:54:22.956Z,5.70
2019-02-11T14:55:29.872Z,5.70
2019-02-11T14:56:36.604Z,5.70
2019-02-11T14:57:43.311Z,5.70
2019-02-11T14:58:50.117Z,5.70